createdAt,value
2018-02-10T00:00:31.425Z,44.70
2018-02-10T00:01:31.331Z,45.30
2018-02-10T00:03:24.584Z,45.10
2018-02-10T00:04:24.505Z,48.70
2018-02-10T00:06:17.768Z,47.30
2018-02-10T00:07:17.675Z,40.90
2018-02-10T00:09:10.918Z,40.00
2018-02-10T00:10:10.845Z,46.60
2018-02-10T00:12:04.110Z,42.00
2018-02-10T00:13:04.016Z,43.00
2018-02-10T00:14:57.282Z,42.50
2018-02-10T00:15:57.191Z,44.20
2018-02-10T00:17:50.433Z,45.20
2018-02-10T00:18:50.356Z,40.20
2018-02-10T00:20:43.624Z,36.80
2018-02-10T00:21:43.531Z,40.20
2018-02-10T00:23:36.776Z,39.30
2018-02-10T00:24:36.701Z,46.50
2018-02-10T00:26:29.965Z,41.40
2018-02-10T00:27:29.873Z,45.40
2018-02-10T00:29:23.121Z,42.00
2018-02-10T00:30:23.089Z,40.70
2018-02-10T00:32:16.308Z,46.10
2018-02-10T00:33:16.215Z,43.90
2018-02-10T00:35:09.460Z,45.10
2018-02-10T00:36:09.385Z,40.40
2018-02-10T00:38:02.761Z,39.20
2018-02-10T00:39:02.555Z,39.20
2018-02-10T00:40:55.929Z,41.00
2018-02-10T00:41:55.729Z,40.90
2018-02-10T00:43:48.974Z,35.70
2018-02-10T00:44:48.897Z,40.60
2018-02-10T00:46:42.161Z,42.00
2018-02-10T00:47:42.070Z,41.20
2018-02-10T00:49:35.405Z,42.80
2018-02-10T00:50:35.331Z,41.00
2018-02-10T00:52:28.599Z,40.80
2018-02-10T00:53:28.503Z,37.70
2018-02-10T00:55:21.861Z,39.90
2018-02-10T00:56:21.670Z,38.10
2018-02-10T00:58:14.934Z,42.80
2018-02-10T00:59:14.896Z,39.30
2018-02-10T01:01:08.091Z,34.00
2018-02-10T01:02:08.017Z,37.70
2018-02-10T01:04:01.284Z,34.40
2018-02-10T01:05:01.196Z,36.60
2018-02-10T01:06:54.454Z,38.00
2018-02-10T01:07:54.358Z,40.90
2018-02-10T01:09:47.605Z,33.80
2018-02-10T01:10:47.531Z,38.20
2018-02-10T01:12:40.794Z,38.70
2018-02-10T01:13:40.702Z,44.90
2018-02-10T01:15:33.954Z,34.30
2018-02-10T01:16:33.878Z,34.30
2018-02-10T01:18:27.142Z,35.60
2018-02-10T01:19:27.055Z,34.60
2018-02-10T01:21:20.299Z,36.40
2018-02-10T01:22:20.219Z,37.80
2018-02-10T01:24:13.485Z,37.10
2018-02-10T01:25:13.391Z,35.50
2018-02-10T01:27:06.642Z,35.60
2018-02-10T01:28:06.562Z,38.50
2018-02-10T01:29:59.827Z,39.20
2018-02-10T01:30:59.737Z,38.50
2018-02-10T01:32:53.025Z,36.00
2018-02-10T01:33:52.907Z,33.00
2018-02-10T01:35:46.153Z,36.00
2018-02-10T01:36:46.077Z,37.70
2018-02-10T01:38:39.421Z,38.10
2018-02-10T01:39:39.329Z,40.00
2018-02-10T01:41:32.689Z,33.30
2018-02-10T01:42:32.498Z,36.70
2018-02-10T01:44:25.761Z,34.30
2018-02-10T01:45:25.669Z,35.20
2018-02-10T01:47:18.912Z,33.30
2018-02-10T01:48:18.835Z,34.40
2018-02-10T01:50:12.092Z,35.60
2018-02-10T01:51:11.997Z,33.80
2018-02-10T01:53:05.245Z,34.50
2018-02-10T01:54:05.167Z,32.20
2018-02-10T01:55:58.428Z,33.30
2018-02-10T01:56:58.337Z,38.00
2018-02-10T01:58:51.603Z,33.30
2018-02-10T01:59:51.509Z,32.00
2018-02-10T02:01:44.771Z,32.20
2018-02-10T02:02:44.678Z,30.80
2018-02-10T02:04:37.941Z,33.80
2018-02-10T02:05:37.847Z,30.40
2018-02-10T02:07:31.097Z,33.00
2018-02-10T02:08:31.019Z,29.30
2018-02-10T02:10:24.274Z,30.40
2018-02-10T02:11:24.180Z,33.40
2018-02-10T02:13:17.426Z,34.50
2018-02-10T02:14:17.350Z,33.30
2018-02-10T02:16:10.615Z,33.20
2018-02-10T02:17:10.521Z,32.40
2018-02-10T02:19:03.767Z,30.20
2018-02-10T02:20:03.692Z,32.60
2018-02-10T02:21:56.956Z,35.90
2018-02-10T02:22:56.861Z,32.30
2018-02-10T02:24:50.111Z,35.60
2018-02-10T02:25:50.031Z,34.00
2018-02-10T02:27:43.425Z,29.90
2018-02-10T02:28:43.330Z,33.50
2018-02-10T02:30:36.591Z,30.70
2018-02-10T02:31:36.493Z,29.60
2018-02-10T02:33:29.852Z,32.10
2018-02-10T02:34:29.669Z,30.00
2018-02-10T02:36:23.045Z,29.80
2018-02-10T02:37:22.833Z,31.40
2018-02-10T02:39:16.081Z,28.30
2018-02-10T02:40:16.006Z,27.70
2018-02-10T02:42:09.272Z,32.30
2018-02-10T02:43:09.178Z,32.10
2018-02-10T02:45:02.425Z,29.20
2018-02-10T02:46:02.348Z,30.00
2018-02-10T02:47:55.614Z,33.00
2018-02-10T02:48:55.521Z,33.60
2018-02-10T02:50:48.766Z,25.20
2018-02-10T02:51:48.692Z,28.70
2018-02-10T02:53:41.958Z,33.20
2018-02-10T02:54:41.865Z,27.60
2018-02-10T02:56:35.134Z,26.70
2018-02-10T02:57:35.034Z,30.70
2018-02-10T02:59:28.284Z,28.20
2018-02-10T03:00:28.210Z,27.80
2018-02-10T03:02:21.477Z,29.60
2018-02-10T03:03:21.381Z,30.40
2018-02-10T03:05:14.741Z,31.30
2018-02-10T03:06:14.555Z,30.10
2018-02-10T03:08:07.816Z,29.00
2018-02-10T03:09:07.721Z,30.60
2018-02-10T03:11:01.082Z,27.40
2018-02-10T03:12:00.896Z,28.10
2018-02-10T03:13:54.164Z,29.40
2018-02-10T03:14:54.069Z,27.80
2018-02-10T03:16:47.428Z,28.00
2018-02-10T03:17:47.330Z,30.20
2018-02-10T03:19:40.592Z,24.70
2018-02-10T03:20:40.503Z,26.40
2018-02-10T03:22:33.773Z,24.90
2018-02-10T03:23:33.673Z,24.50
2018-02-10T03:25:26.922Z,26.30
2018-02-10T03:26:26.845Z,26.20
2018-02-10T03:28:20.224Z,29.30
2018-02-10T03:29:20.018Z,29.50
2018-02-10T03:31:13.267Z,28.90
2018-02-10T03:32:13.192Z,27.90
2018-02-10T03:34:06.463Z,33.90
2018-02-10T03:35:06.365Z,29.20
2018-02-10T03:36:59.614Z,30.80
2018-02-10T03:37:59.538Z,29.00
2018-02-10T03:39:52.820Z,28.40
2018-02-10T03:40:52.711Z,29.20
2018-02-10T03:42:46.073Z,30.40
2018-02-10T03:43:45.884Z,29.60
2018-02-10T03:45:39.152Z,30.10
2018-02-10T03:46:39.061Z,28.70
2018-02-10T03:48:32.331Z,34.00
2018-02-10T03:49:32.233Z,30.80
2018-02-10T03:51:25.595Z,25.50
2018-02-10T03:52:25.407Z,30.60
2018-02-10T03:54:18.672Z,32.40
2018-02-10T03:55:18.579Z,36.50
2018-02-10T03:57:11.832Z,29.50
2018-02-10T03:58:11.759Z,33.80
2018-02-10T04:00:05.015Z,27.90
2018-02-10T04:01:04.924Z,27.80
2018-02-10T04:02:58.171Z,30.00
2018-02-10T04:03:58.100Z,32.10
2018-02-10T04:05:51.424Z,30.00
2018-02-10T04:06:51.330Z,31.10
2018-02-10T04:08:44.577Z,29.20
2018-02-10T04:09:44.504Z,32.20
2018-02-10T04:11:37.770Z,33.40
2018-02-10T04:12:37.676Z,33.50
2018-02-10T04:14:30.927Z,31.40
2018-02-10T04:15:30.852Z,30.90
2018-02-10T04:17:24.127Z,30.10
2018-02-10T04:18:24.027Z,30.40
2018-02-10T04:20:17.285Z,33.30
2018-02-10T04:21:17.198Z,35.60
2018-02-10T04:23:10.439Z,27.60
2018-02-10T04:24:10.364Z,31.50
2018-02-10T04:26:03.746Z,32.10
2018-02-10T04:27:03.541Z,28.50
2018-02-10T04:28:56.789Z,31.20
2018-02-10T04:29:56.713Z,32.50
2018-02-10T04:31:50.096Z,31.60
2018-02-10T04:32:49.895Z,28.40
2018-02-10T04:34:43.139Z,33.50
2018-02-10T04:35:43.066Z,35.60
2018-02-10T04:37:36.336Z,37.20
2018-02-10T04:38:36.242Z,38.90
2018-02-10T04:40:29.493Z,43.00
2018-02-10T04:41:29.418Z,37.80
2018-02-10T04:43:22.687Z,37.40
2018-02-10T04:44:22.590Z,37.10
2018-02-10T04:46:15.973Z,38.20
2018-02-10T04:47:15.781Z,37.90
2018-02-10T04:49:09.039Z,48.20
2018-02-10T04:50:08.960Z,42.90
2018-02-10T04:52:02.228Z,45.00
2018-02-10T04:53:02.135Z,43.80
2018-02-10T04:54:55.407Z,48.10
2018-02-10T04:55:55.331Z,49.50
2018-02-10T04:57:48.599Z,54.60
2018-02-10T04:58:48.507Z,55.50
2018-02-10T05:00:41.762Z,56.00
2018-02-10T05:01:41.682Z,50.40
2018-02-10T05:03:34.947Z,52.60
2018-02-10T05:04:34.854Z,53.50
2018-02-10T05:06:28.106Z,56.60
2018-02-10T05:07:28.027Z,63.10
2018-02-10T05:09:21.423Z,62.20
2018-02-10T05:10:21.330Z,69.30
2018-02-10T05:12:14.600Z,58.40
2018-02-10T05:13:14.507Z,58.60
2018-02-10T05:15:07.762Z,59.00
2018-02-10T05:16:07.680Z,60.60
2018-02-10T05:18:00.952Z,68.10
2018-02-10T05:19:00.857Z,65.10
2018-02-10T05:20:54.107Z,66.00
2018-02-10T05:21:54.039Z,65.60
2018-02-10T05:23:47.423Z,67.80
2018-02-10T05:24:47.332Z,67.70
2018-02-10T05:26:40.582Z,74.40
2018-02-10T05:27:40.508Z,79.10
2018-02-10T05:29:33.774Z,72.40
2018-02-10T05:30:33.684Z,74.50
2018-02-10T05:32:26.932Z,81.50
2018-02-10T05:33:26.858Z,73.30
2018-02-10T05:35:20.126Z,79.00
2018-02-10T05:36:20.033Z,82.20
2018-02-10T05:38:13.434Z,87.90
2018-02-10T05:39:13.333Z,80.80
2018-02-10T05:41:06.585Z,83.90
2018-02-10T05:42:06.511Z,87.00
2018-02-10T05:43:59.778Z,83.00
2018-02-10T05:44:59.704Z,87.40
2018-02-10T05:46:52.939Z,92.10
2018-02-10T05:47:52.858Z,87.70
2018-02-10T05:49:46.118Z,91.80
2018-02-10T05:50:46.030Z,82.30
2018-02-10T05:52:39.408Z,95.70
2018-02-10T05:53:39.332Z,89.60
2018-02-10T05:55:32.597Z,85.40
2018-02-10T05:56:32.504Z,81.00
2018-02-10T05:58:25.757Z,88.00
2018-02-10T05:59:25.681Z,85.50
2018-02-10T06:01:18.946Z,83.00
2018-02-10T06:02:18.853Z,89.20
2018-02-10T06:04:12.214Z,96.10
2018-02-10T06:05:12.034Z,95.90
2018-02-10T06:07:05.424Z,107.60
2018-02-10T06:08:05.331Z,91.00
2018-02-10T06:09:58.593Z,99.50
2018-02-10T06:10:58.491Z,104.90
2018-02-10T06:12:51.750Z,93.60
2018-02-10T06:13:51.670Z,90.80
2018-02-10T06:15:44.940Z,97.10
2018-02-10T06:16:44.848Z,90.40
2018-02-10T06:18:38.207Z,92.00
2018-02-10T06:19:38.023Z,99.70
2018-02-10T06:21:31.429Z,89.20
2018-02-10T06:22:31.334Z,105.00
2018-02-10T06:24:24.580Z,94.20
2018-02-10T06:25:24.507Z,103.00
2018-02-10T06:27:17.773Z,100.90
2018-02-10T06:28:17.682Z,101.20
2018-02-10T06:30:10.924Z,101.90
2018-02-10T06:31:10.845Z,101.80
2018-02-10T06:33:04.115Z,99.10
2018-02-10T06:34:04.023Z,103.50
2018-02-10T06:35:57.288Z,104.80
2018-02-10T06:36:57.194Z,100.90
2018-02-10T06:38:50.446Z,109.00
2018-02-10T06:39:50.372Z,113.60
2018-02-10T06:41:43.639Z,107.50
2018-02-10T06:42:43.545Z,116.40
2018-02-10T06:44:36.795Z,109.60
2018-02-10T06:45:36.720Z,111.90
2018-02-10T06:47:29.990Z,112.80
2018-02-10T06:48:29.896Z,107.80
2018-02-10T06:50:23.141Z,107.00
2018-02-10T06:51:23.065Z,106.10
2018-02-10T06:53:16.334Z,109.10
2018-02-10T06:54:16.240Z,115.50
2018-02-10T06:56:09.601Z,115.70
2018-02-10T06:57:09.415Z,126.20
2018-02-10T06:59:02.681Z,109.40
2018-02-10T07:00:02.591Z,124.20
2018-02-10T07:01:55.858Z,118.60
2018-02-10T07:02:55.770Z,122.30
2018-02-10T07:04:49.012Z,117.80
2018-02-10T07:05:48.940Z,127.00
2018-02-10T07:07:42.319Z,128.10
2018-02-10T07:08:42.113Z,127.20
2018-02-10T07:10:35.409Z,124.40
2018-02-10T07:11:35.335Z,123.50
2018-02-10T07:13:28.600Z,122.80
2018-02-10T07:14:28.506Z,120.70
2018-02-10T07:16:21.870Z,127.90
2018-02-10T07:17:21.682Z,125.80
2018-02-10T07:19:14.949Z,121.40
2018-02-10T07:20:14.857Z,119.60
2018-02-10T07:22:08.108Z,106.70
2018-02-10T07:23:08.034Z,116.40
2018-02-10T07:25:01.425Z,125.10
2018-02-10T07:26:01.333Z,108.30
2018-02-10T07:27:54.581Z,107.80
2018-02-10T07:28:54.506Z,112.90
2018-02-10T07:30:47.778Z,118.50
2018-02-10T07:31:47.680Z,116.60
2018-02-10T07:33:40.956Z,105.80
2018-02-10T07:34:40.858Z,107.70
2018-02-10T07:36:34.112Z,101.50
2018-02-10T07:37:34.038Z,95.80
2018-02-10T07:39:27.425Z,102.00
2018-02-10T07:40:27.332Z,107.70
2018-02-10T07:42:21.580Z,106.80
2018-02-10T07:43:21.506Z,106.60
2018-02-10T07:45:14.774Z,106.30
2018-02-10T07:46:14.680Z,104.50
2018-02-10T07:48:07.923Z,97.60
2018-02-10T07:49:07.849Z,98.50
2018-02-10T07:51:01.231Z,97.00
2018-02-10T07:52:01.021Z,94.90
2018-02-10T07:53:54.257Z,103.00
2018-02-10T07:54:54.183Z,112.90
2018-02-10T07:56:47.443Z,97.10
2018-02-10T07:57:47.345Z,102.30
2018-02-10T07:59:40.729Z,106.80
2018-02-10T08:00:40.523Z,104.00
2018-02-10T08:02:33.767Z,106.90
2018-02-10T08:03:33.690Z,108.90
2018-02-10T08:05:27.066Z,109.00
2018-02-10T08:06:26.857Z,106.10
2018-02-10T08:08:20.219Z,101.70
2018-02-10T08:09:20.032Z,107.20
2018-02-10T08:11:13.423Z,106.80
2018-02-10T08:12:13.330Z,98.70
2018-02-10T08:14:06.575Z,102.90
2018-02-10T08:15:06.499Z,101.70
2018-02-10T08:16:59.756Z,111.20
2018-02-10T08:17:59.664Z,92.30
2018-02-10T08:19:52.926Z,99.60
2018-02-10T08:20:52.827Z,108.50
2018-02-10T08:22:46.068Z,87.60
2018-02-10T08:23:45.992Z,92.40
2018-02-10T08:25:39.260Z,92.90
2018-02-10T08:26:39.169Z,94.50
2018-02-10T08:28:32.417Z,97.80
2018-02-10T08:29:32.345Z,100.40
2018-02-10T08:31:25.608Z,100.40
2018-02-10T08:32:25.509Z,102.80
2018-02-10T08:34:18.872Z,97.40
2018-02-10T08:35:18.690Z,90.60
2018-02-10T08:37:11.974Z,103.20
2018-02-10T08:38:11.852Z,103.40
2018-02-10T08:40:05.944Z,94.50
2018-02-10T08:41:05.868Z,90.60
2018-02-10T08:42:59.128Z,100.40
2018-02-10T08:43:59.034Z,100.00
2018-02-10T08:45:52.314Z,96.00
2018-02-10T08:46:52.214Z,91.70
2018-02-10T08:48:45.454Z,88.40
2018-02-10T08:49:45.381Z,81.40
2018-02-10T08:51:38.758Z,93.00
2018-02-10T08:52:38.543Z,86.60
2018-02-10T08:54:31.793Z,99.60
2018-02-10T08:55:31.721Z,89.50
2018-02-10T08:57:24.977Z,87.20
2018-02-10T08:58:24.883Z,82.50
2018-02-10T09:00:18.126Z,86.60
2018-02-10T09:01:18.054Z,83.70
2018-02-10T09:03:11.422Z,80.00
2018-02-10T09:04:11.330Z,83.70
2018-02-10T09:06:04.689Z,93.00
2018-02-10T09:07:04.498Z,90.30
2018-02-10T09:08:57.755Z,86.80
2018-02-10T09:09:57.708Z,87.10
2018-02-10T09:11:50.922Z,86.80
2018-02-10T09:12:50.827Z,85.50
2018-02-10T09:14:44.190Z,81.20
2018-02-10T09:15:43.996Z,78.50
2018-02-10T09:17:37.279Z,95.20
2018-02-10T09:18:37.186Z,83.00
2018-02-10T09:20:30.426Z,85.00
2018-02-10T09:21:30.354Z,82.90
2018-02-10T09:23:23.613Z,69.90
2018-02-10T09:24:23.520Z,74.20
2018-02-10T09:26:16.760Z,74.00
2018-02-10T09:27:16.691Z,70.60
2018-02-10T09:29:09.947Z,75.60
2018-02-10T09:30:09.860Z,73.10
2018-02-10T09:32:03.103Z,69.10
2018-02-10T09:33:03.021Z,68.30
2018-02-10T09:34:56.279Z,75.10
2018-02-10T09:35:56.188Z,64.50
2018-02-10T09:37:49.494Z,69.20
2018-02-10T09:38:49.389Z,67.00
2018-02-10T09:40:42.761Z,69.60
2018-02-10T09:41:42.587Z,67.60
2018-02-10T09:43:35.973Z,71.10
2018-02-10T09:44:35.766Z,67.70
2018-02-10T09:46:29.011Z,69.20
2018-02-10T09:47:28.933Z,69.00
2018-02-10T09:49:22.192Z,66.30
2018-02-10T09:50:22.101Z,67.10
2018-02-10T09:52:16.372Z,65.70
2018-02-10T09:53:16.268Z,69.10
2018-02-10T09:55:09.651Z,68.00
2018-02-10T09:56:09.436Z,63.00
2018-02-10T09:58:02.677Z,66.90
2018-02-10T09:59:02.632Z,64.60
2018-02-10T10:00:55.863Z,59.60
2018-02-10T10:01:55.771Z,60.10
2018-02-10T10:03:49.035Z,58.80
2018-02-10T10:04:48.937Z,61.80
2018-02-10T10:06:42.177Z,67.00
2018-02-10T10:07:42.102Z,60.40
2018-02-10T10:09:35.424Z,65.00
2018-02-10T10:10:35.331Z,62.10
2018-02-10T10:12:28.573Z,62.50
2018-02-10T10:13:28.494Z,62.90
2018-02-10T10:15:21.755Z,63.70
2018-02-10T10:16:21.664Z,65.50
2018-02-10T10:18:14.904Z,63.70
2018-02-10T10:19:14.830Z,69.10
2018-02-10T10:21:08.208Z,65.70
2018-02-10T10:22:08.010Z,72.50
2018-02-10T10:24:01.253Z,75.80
2018-02-10T10:25:01.173Z,78.60
2018-02-10T10:26:54.452Z,78.00
2018-02-10T10:27:54.352Z,73.00
2018-02-10T10:29:47.615Z,72.90
2018-02-10T10:30:47.520Z,73.90
2018-02-10T10:32:40.790Z,69.60
2018-02-10T10:33:40.699Z,67.30
2018-02-10T10:35:33.957Z,77.80
2018-02-10T10:36:33.864Z,77.20
2018-02-10T10:38:27.103Z,80.00
2018-02-10T10:39:27.025Z,76.90
2018-02-10T10:41:20.409Z,82.90
2018-02-10T10:42:20.197Z,79.60
2018-02-10T10:44:13.434Z,79.60
2018-02-10T10:45:13.361Z,80.60
2018-02-10T10:47:06.631Z,79.90
2018-02-10T10:48:06.540Z,80.10
2018-02-10T10:49:59.785Z,75.20
2018-02-10T10:50:59.711Z,85.80
2018-02-10T10:52:52.968Z,77.10
2018-02-10T10:53:52.881Z,81.80
2018-02-10T10:55:46.123Z,85.90
2018-02-10T10:56:46.043Z,85.80
2018-02-10T10:58:39.421Z,81.40
2018-02-10T10:59:39.330Z,78.80
2018-02-10T11:01:32.587Z,86.70
2018-02-10T11:02:32.495Z,87.10
2018-02-10T11:04:25.735Z,92.50
2018-02-10T11:05:25.661Z,89.40
2018-02-10T11:07:18.919Z,98.10
2018-02-10T11:08:18.826Z,108.10
2018-02-10T11:10:12.188Z,100.30
2018-02-10T11:11:11.996Z,101.90
2018-02-10T11:13:05.255Z,100.70
2018-02-10T11:14:05.162Z,96.50
2018-02-10T11:15:58.523Z,95.40
2018-02-10T11:16:58.326Z,100.20
2018-02-10T11:18:51.587Z,97.40
2018-02-10T11:19:51.492Z,102.20
2018-02-10T11:21:44.753Z,107.70
2018-02-10T11:22:44.657Z,104.50
2018-02-10T11:24:37.904Z,113.40
2018-02-10T11:25:37.827Z,113.10
2018-02-10T11:27:31.209Z,122.30
2018-02-10T11:28:30.994Z,120.30
2018-02-10T11:30:24.227Z,116.60
2018-02-10T11:31:24.148Z,105.30
2018-02-10T11:33:18.413Z,115.00
2018-02-10T11:34:18.319Z,123.60
2018-02-10T11:36:11.565Z,127.80
2018-02-10T11:37:11.489Z,118.40
2018-02-10T11:39:04.803Z,121.00
2018-02-10T11:40:04.742Z,115.20
2018-02-10T11:41:58.075Z,117.30
2018-02-10T11:42:57.876Z,112.80
2018-02-10T11:44:51.257Z,121.10
2018-02-10T11:45:51.041Z,111.50
2018-02-10T11:47:43.921Z,101.20
2018-02-10T11:48:43.714Z,111.60
2018-02-10T11:50:37.078Z,118.10
2018-02-10T11:51:36.930Z,109.50
2018-02-10T11:53:30.145Z,100.40
2018-02-10T11:54:30.049Z,104.10
2018-02-10T11:56:23.409Z,97.30
2018-02-10T11:57:23.329Z,101.70
2018-02-10T11:59:16.588Z,105.70
2018-02-10T12:00:16.502Z,108.10
2018-02-10T12:02:09.737Z,100.50
2018-02-10T12:03:09.664Z,105.40
2018-02-10T12:05:02.925Z,99.80
2018-02-10T12:06:02.830Z,106.80
2018-02-10T12:07:56.098Z,98.80
2018-02-10T12:08:55.997Z,104.80
2018-02-10T12:10:49.239Z,105.30
2018-02-10T12:11:49.166Z,98.80
2018-02-10T12:13:42.549Z,103.20
2018-02-10T12:14:42.331Z,95.90
2018-02-10T12:16:35.602Z,96.50
2018-02-10T12:17:35.529Z,94.70
2018-02-10T12:19:28.788Z,89.30
2018-02-10T12:20:28.696Z,91.80
2018-02-10T12:22:22.938Z,84.10
2018-02-10T12:23:22.859Z,72.00
2018-02-10T12:25:16.300Z,80.90
2018-02-10T12:26:16.031Z,84.70
2018-02-10T12:28:09.393Z,81.80
2018-02-10T12:29:09.200Z,89.00
2018-02-10T12:31:02.454Z,92.80
2018-02-10T12:32:02.382Z,94.30
2018-02-10T12:33:55.607Z,88.90
2018-02-10T12:34:55.532Z,90.70
2018-02-10T12:36:48.792Z,89.90
2018-02-10T12:37:48.701Z,88.70
2018-02-10T12:39:41.963Z,87.60
2018-02-10T12:40:41.870Z,90.80
2018-02-10T12:42:35.129Z,94.40
2018-02-10T12:43:35.054Z,95.70
2018-02-10T12:45:28.317Z,90.20
2018-02-10T12:46:28.223Z,90.70
2018-02-10T12:48:21.477Z,85.40
2018-02-10T12:49:21.403Z,91.60
2018-02-10T12:51:14.676Z,91.70
2018-02-10T12:52:14.585Z,91.60
2018-02-10T12:54:07.836Z,92.00
2018-02-10T12:55:07.765Z,94.40
2018-02-10T12:57:01.023Z,96.60
2018-02-10T12:58:00.938Z,89.90
2018-02-10T12:59:54.177Z,94.40
2018-02-10T13:00:54.103Z,96.30
2018-02-10T13:02:47.422Z,90.00
2018-02-10T13:03:47.333Z,92.30
2018-02-10T13:05:40.711Z,90.80
2018-02-10T13:06:40.510Z,92.70
2018-02-10T13:08:33.873Z,88.00
2018-02-10T13:09:33.675Z,93.10
2018-02-10T13:11:27.057Z,94.50
2018-02-10T13:12:26.853Z,92.10
2018-02-10T13:14:20.093Z,95.60
2018-02-10T13:15:20.020Z,97.40
2018-02-10T13:17:13.296Z,98.20
2018-02-10T13:18:13.204Z,98.00
2018-02-10T13:20:06.444Z,86.80
2018-02-10T13:21:06.371Z,91.80
2018-02-10T13:22:59.641Z,88.20
2018-02-10T13:23:59.551Z,87.40
2018-02-10T13:25:53.803Z,93.00
2018-02-10T13:26:53.729Z,86.80
2018-02-10T13:28:46.997Z,90.50
2018-02-10T13:29:46.906Z,82.30
2018-02-10T13:31:40.176Z,91.30
2018-02-10T13:32:40.084Z,86.00
2018-02-10T13:34:33.399Z,85.00
2018-02-10T13:35:33.332Z,83.50
2018-02-10T13:37:26.622Z,87.30
2018-02-10T13:38:26.529Z,83.60
2018-02-10T13:40:19.772Z,77.80
2018-02-10T13:41:19.699Z,80.10
2018-02-10T13:43:12.962Z,69.70
2018-02-10T13:44:12.869Z,73.10
2018-02-10T13:46:06.232Z,70.40
2018-02-10T13:47:06.037Z,70.50
2018-02-10T13:48:59.431Z,76.90
2018-02-10T13:49:59.335Z,74.40
2018-02-10T13:51:52.751Z,81.20
2018-02-10T13:52:52.504Z,88.00
2018-02-10T13:54:45.886Z,82.10
2018-02-10T13:55:45.682Z,71.50
2018-02-10T13:57:38.950Z,85.10
2018-02-10T13:58:38.876Z,82.40
2018-02-10T14:00:32.137Z,74.80
2018-02-10T14:01:32.054Z,72.50
2018-02-10T14:03:25.428Z,79.40
2018-02-10T14:04:25.329Z,77.40
2018-02-10T14:06:18.694Z,81.70
2018-02-10T14:07:18.509Z,75.60
2018-02-10T14:09:11.774Z,85.10
2018-02-10T14:10:11.683Z,89.00
2018-02-10T14:12:04.942Z,81.10
2018-02-10T14:13:04.866Z,74.90
2018-02-10T14:14:59.130Z,78.90
2018-02-10T14:15:59.038Z,76.40
2018-02-10T14:17:52.288Z,74.80
2018-02-10T14:18:52.216Z,77.60
2018-02-10T14:20:45.486Z,81.20
2018-02-10T14:21:45.395Z,71.80
2018-02-10T14:23:38.759Z,77.60
2018-02-10T14:24:38.575Z,80.90
2018-02-10T14:26:31.843Z,84.20
2018-02-10T14:27:31.758Z,84.20
2018-02-10T14:29:25.023Z,75.30
2018-02-10T14:30:24.933Z,85.30
2018-02-10T14:32:18.184Z,82.20
2018-02-10T14:33:18.110Z,77.90
2018-02-10T14:35:11.424Z,77.60
2018-02-10T14:36:11.330Z,84.40
2018-02-10T14:38:04.594Z,75.70
2018-02-10T14:39:04.521Z,76.10
2018-02-10T14:40:57.789Z,69.50
2018-02-10T14:41:57.697Z,66.90
2018-02-10T14:43:50.959Z,74.40
2018-02-10T14:44:50.878Z,69.00
2018-02-10T14:46:44.153Z,82.10
2018-02-10T14:47:44.056Z,71.20
2018-02-10T14:49:37.402Z,72.30
2018-02-10T14:50:37.329Z,68.70
2018-02-10T14:52:30.714Z,73.30
2018-02-10T14:53:30.505Z,73.90
2018-02-10T14:55:23.901Z,71.50
2018-02-10T14:56:23.688Z,76.60
2018-02-10T14:58:16.939Z,85.70
2018-02-10T14:59:16.867Z,85.00
2018-02-10T15:01:10.137Z,85.20
2018-02-10T15:02:10.045Z,86.60
2018-02-10T15:04:03.402Z,77.00
2018-02-10T15:05:03.332Z,81.20
2018-02-10T15:06:56.606Z,77.40
2018-02-10T15:07:56.504Z,88.00
2018-02-10T15:09:49.753Z,87.40
2018-02-10T15:10:49.682Z,84.80
2018-02-10T15:12:42.950Z,86.50
2018-02-10T15:13:42.860Z,95.00
2018-02-10T15:15:36.114Z,95.30
2018-02-10T15:16:36.041Z,92.90
2018-02-10T15:18:29.428Z,83.80
2018-02-10T15:19:29.334Z,80.90
2018-02-10T15:21:22.713Z,83.60
2018-02-10T15:22:22.509Z,82.40
2018-02-10T15:24:15.780Z,84.50
2018-02-10T15:25:15.688Z,79.50
2018-02-10T15:27:08.959Z,82.40
2018-02-10T15:28:08.868Z,84.10
2018-02-10T15:30:02.111Z,76.10
2018-02-10T15:31:02.036Z,68.00
2018-02-10T15:32:55.421Z,67.90
2018-02-10T15:33:55.329Z,66.20
2018-02-10T15:35:48.693Z,69.10
2018-02-10T15:36:48.510Z,69.00
2018-02-10T15:38:41.782Z,63.80
2018-02-10T15:39:41.690Z,71.10
2018-02-10T15:41:34.937Z,62.40
2018-02-10T15:42:34.869Z,72.10
2018-02-10T15:44:28.138Z,67.40
2018-02-10T15:45:28.051Z,70.10
2018-02-10T15:47:21.404Z,66.20
2018-02-10T15:48:21.331Z,68.90
2018-02-10T15:50:14.592Z,63.80
2018-02-10T15:51:14.503Z,79.10
2018-02-10T15:53:07.770Z,77.30
2018-02-10T15:54:07.678Z,69.00
2018-02-10T15:56:00.934Z,70.10
2018-02-10T15:57:00.858Z,72.60
2018-02-10T15:58:54.131Z,80.60
2018-02-10T15:59:54.038Z,88.30
2018-02-10T16:01:47.402Z,74.90
2018-02-10T16:02:47.330Z,87.70
2018-02-10T16:04:40.603Z,75.90
2018-02-10T16:05:40.510Z,78.30
2018-02-10T16:07:33.763Z,86.00
2018-02-10T16:08:33.690Z,82.50
2018-02-10T16:10:26.947Z,98.00
2018-02-10T16:11:26.864Z,99.60
2018-02-10T16:13:20.111Z,105.00
2018-02-10T16:14:20.041Z,98.80
2018-02-10T16:16:13.423Z,98.30
2018-02-10T16:17:13.338Z,94.10
2018-02-10T16:19:06.581Z,96.70
2018-02-10T16:20:06.510Z,107.50
2018-02-10T16:21:59.888Z,107.00
2018-02-10T16:22:59.686Z,105.20
2018-02-10T16:24:52.959Z,99.90
2018-02-10T16:25:52.869Z,93.70
2018-02-10T16:27:46.120Z,105.50
2018-02-10T16:28:46.047Z,102.80
2018-02-10T16:30:39.427Z,92.50
2018-02-10T16:31:39.335Z,90.30
2018-02-10T16:33:32.584Z,94.10
2018-02-10T16:34:32.514Z,98.90
2018-02-10T16:36:25.791Z,88.00
2018-02-10T16:37:25.690Z,92.90
2018-02-10T16:39:18.946Z,87.70
2018-02-10T16:40:18.871Z,77.00
2018-02-10T16:42:12.144Z,90.70
2018-02-10T16:43:12.053Z,92.40
2018-02-10T16:45:05.402Z,81.40
2018-02-10T16:46:05.330Z,81.70
2018-02-10T16:47:58.604Z,82.40
2018-02-10T16:48:58.510Z,85.30
2018-02-10T16:50:51.762Z,76.10
2018-02-10T16:51:51.691Z,82.20
2018-02-10T16:53:44.966Z,88.60
2018-02-10T16:54:44.879Z,84.30
2018-02-10T16:56:38.153Z,89.30
2018-02-10T16:57:38.057Z,85.60
2018-02-10T16:59:31.403Z,82.90
2018-02-10T17:00:31.329Z,91.80
2018-02-10T17:02:24.620Z,80.00
2018-02-10T17:03:24.528Z,95.10
2018-02-10T17:05:17.779Z,85.30
2018-02-10T17:06:17.707Z,84.80
2018-02-10T17:08:10.978Z,94.00
2018-02-10T17:09:10.888Z,91.10
2018-02-10T17:11:04.144Z,90.00
2018-02-10T17:12:04.070Z,102.10
2018-02-10T17:13:57.424Z,104.60
2018-02-10T17:14:57.334Z,104.40
2018-02-10T17:16:50.697Z,110.90
2018-02-10T17:17:50.512Z,120.40
2018-02-10T17:19:43.784Z,114.00
2018-02-10T17:20:43.692Z,107.50
2018-02-10T17:22:36.955Z,107.40
2018-02-10T17:23:36.881Z,120.10
2018-02-10T17:25:30.151Z,117.60
2018-02-10T17:26:30.059Z,135.20
2018-02-10T17:28:23.431Z,113.00
2018-02-10T17:29:23.331Z,113.80
2018-02-10T17:31:16.582Z,115.40
2018-02-10T17:32:16.511Z,118.60
2018-02-10T17:34:09.781Z,114.10
2018-02-10T17:35:09.690Z,122.10
2018-02-10T17:37:02.943Z,124.10
2018-02-10T17:38:02.864Z,123.20
2018-02-10T17:39:56.129Z,123.70
2018-02-10T17:40:56.054Z,119.50
2018-02-10T17:42:49.403Z,107.30
2018-02-10T17:43:49.330Z,108.60
2018-02-10T17:45:42.715Z,110.70
2018-02-10T17:46:42.512Z,105.80
2018-02-10T17:48:35.765Z,117.10
2018-02-10T17:49:35.691Z,108.40
2018-02-10T17:51:28.965Z,117.20
2018-02-10T17:52:28.874Z,118.10
2018-02-10T17:54:22.142Z,113.80
2018-02-10T17:55:22.049Z,112.00
2018-02-10T17:57:15.431Z,113.10
2018-02-10T17:58:15.341Z,119.00
2018-02-10T18:00:08.603Z,117.60
2018-02-10T18:01:08.513Z,122.00
2018-02-10T18:03:01.764Z,114.00
2018-02-10T18:04:01.690Z,119.90
2018-02-10T18:05:54.960Z,108.10
2018-02-10T18:06:54.869Z,114.70
2018-02-10T18:08:48.144Z,113.70
2018-02-10T18:09:48.048Z,110.30
2018-02-10T18:11:41.405Z,134.60
2018-02-10T18:12:41.333Z,124.00
2018-02-10T18:14:34.611Z,125.50
2018-02-10T18:15:34.521Z,129.20
2018-02-10T18:17:27.770Z,129.90
2018-02-10T18:18:27.699Z,127.30
2018-02-10T18:20:20.969Z,120.00
2018-02-10T18:21:20.879Z,120.50
2018-02-10T18:23:14.129Z,115.80
2018-02-10T18:24:14.058Z,102.70
2018-02-10T18:26:07.423Z,119.30